sensor_id;sensor_type;location;lat;lon;timestamp;P1;durP1;ratioP1;P2;durP2;ratioP2
75823;SDS011;64457;51.976;9.834;2023-03-01T00:01:00;17.00;;;9.40;;
75823;SDS011;64457;51.976;9.834;2023-03-01T00:03:28;15.15;;;9.25;;
75823;SDS011;64457;51.976;9.834;2023-03-01T00:05:56;16.85;;;10.32;;
75823;SDS011;64457;51.976;9.834;2023-03-01T00:08:24;22.38;;;11.38;;
75823;SDS011;64457;51.976;9.834;2023-03-01T00:10:59;19.15;;;10.70;;
75823;SDS011;64457;51.976;9.834;2023-03-01T00:13:28;16.88;;;10.63;;
75823;SDS011;64457;51.976;9.834;2023-03-01T00:15:55;18.45;;;10.50;;
75823;SDS011;64457;51.976;9.834;2023-03-01T00:18:23;21.63;;;9.98;;
75823;SDS011;64457;51.976;9.834;2023-03-01T00:20:51;17.88;;;10.32;;
75823;SDS011;64457;51.976;9.834;2023-03-01T00:23:20;17.25;;;10.05;;
75823;SDS011;64457;51.976;9.834;2023-03-01T00:25:48;20.60;;;10.48;;
75823;SDS011;64457;51.976;9.834;2023-03-01T00:28:19;18.23;;;9.68;;
75823;SDS011;64457;51.976;9.834;2023-03-01T00:30:47;15.52;;;8.85;;
75823;SDS011;64457;51.976;9.834;2023-03-01T00:33:15;23.00;;;9.82;;
75823;SDS011;64457;51.976;9.834;2023-03-01T00:35:42;18.70;;;9.05;;
75823;SDS011;64457;51.976;9.834;2023-03-01T00:38:09;18.63;;;9.85;;
75823;SDS011;64457;51.976;9.834;2023-03-01T00:40:38;16.83;;;9.73;;
75823;SDS011;64457;51.976;9.834;2023-03-01T00:43:05;16.77;;;9.55;;
75823;SDS011;64457;51.976;9.834;2023-03-01T00:45:32;15.77;;;8.95;;
75823;SDS011;64457;51.976;9.834;2023-03-01T00:47:59;16.40;;;9.93;;
75823;SDS011;64457;51.976;9.834;2023-03-01T00:50:27;17.13;;;10.27;;
75823;SDS011;64457;51.976;9.834;2023-03-01T00:52:54;15.30;;;8.38;;
75823;SDS011;64457;51.976;9.834;2023-03-01T00:55:22;17.58;;;9.55;;
75823;SDS011;64457;51.976;9.834;2023-03-01T00:57:52;19.05;;;9.90;;
75823;SDS011;64457;51.976;9.834;2023-03-01T01:00:20;16.73;;;9.13;;
75823;SDS011;64457;51.976;9.834;2023-03-01T01:02:48;14.50;;;8.88;;
75823;SDS011;64457;51.976;9.834;2023-03-01T01:05:15;16.25;;;8.30;;
75823;SDS011;64457;51.976;9.834;2023-03-01T01:07:46;14.55;;;9.02;;
75823;SDS011;64457;51.976;9.834;2023-03-01T01:10:14;15.45;;;8.57;;
75823;SDS011;64457;51.976;9.834;2023-03-01T01:12:43;14.35;;;8.20;;
75823;SDS011;64457;51.976;9.834;2023-03-01T01:15:12;16.30;;;9.05;;
75823;SDS011;64457;51.976;9.834;2023-03-01T01:17:41;28.05;;;10.25;;
75823;SDS011;64457;51.976;9.834;2023-03-01T01:20:09;15.57;;;8.82;;
75823;SDS011;64457;51.976;9.834;2023-03-01T01:22:37;15.95;;;8.82;;
75823;SDS011;64457;51.976;9.834;2023-03-01T01:25:05;18.83;;;9.95;;
75823;SDS011;64457;51.976;9.834;2023-03-01T01:27:33;18.88;;;10.45;;
75823;SDS011;64457;51.976;9.834;2023-03-01T01:30:00;18.60;;;8.63;;
75823;SDS011;64457;51.976;9.834;2023-03-01T01:32:29;16.65;;;9.90;;
75823;SDS011;64457;51.976;9.834;2023-03-01T01:34:56;16.77;;;9.20;;
75823;SDS011;64457;51.976;9.834;2023-03-01T01:37:24;14.77;;;8.80;;
75823;SDS011;64457;51.976;9.834;2023-03-01T01:39:56;16.10;;;9.10;;
75823;SDS011;64457;51.976;9.834;2023-03-01T01:42:24;18.30;;;10.02;;
75823;SDS011;64457;51.976;9.834;2023-03-01T01:47:55;15.88;;;7.45;;
75823;SDS011;64457;51.976;9.834;2023-03-01T01:50:28;17.05;;;8.60;;
75823;SDS011;64457;51.976;9.834;2023-03-01T01:53:04;16.67;;;9.18;;
75823;SDS011;64457;51.976;9.834;2023-03-01T01:55:33;15.60;;;8.73;;
75823;SDS011;64457;51.976;9.834;2023-03-01T01:58:08;17.50;;;8.70;;
75823;SDS011;64457;51.976;9.834;2023-03-01T02:00:37;18.02;;;9.70;;
75823;SDS011;64457;51.976;9.834;2023-03-01T02:03:08;14.32;;;8.48;;
75823;SDS011;64457;51.976;9.834;2023-03-01T02:05:43;16.00;;;9.50;;
75823;SDS011;64457;51.976;9.834;2023-03-01T02:08:14;17.75;;;9.43;;
75823;SDS011;64457;51.976;9.834;2023-03-01T02:10:45;17.25;;;9.55;;
75823;SDS011;64457;51.976;9.834;2023-03-01T02:13:14;15.80;;;9.18;;
75823;SDS011;64457;51.976;9.834;2023-03-01T02:15:41;15.05;;;9.05;;
75823;SDS011;64457;51.976;9.834;2023-03-01T02:18:11;16.08;;;9.27;;
75823;SDS011;64457;51.976;9.834;2023-03-01T02:20:44;21.52;;;9.65;;
75823;SDS011;64457;51.976;9.834;2023-03-01T02:23:23;14.45;;;8.82;;
75823;SDS011;64457;51.976;9.834;2023-03-01T02:25:52;20.05;;;10.13;;
75823;SDS011;64457;51.976;9.834;2023-03-01T02:28:29;17.63;;;9.48;;
75823;SDS011;64457;51.976;9.834;2023-03-01T02:30:57;16.35;;;8.30;;
75823;SDS011;64457;51.976;9.834;2023-03-01T02:33:42;18.85;;;9.65;;
75823;SDS011;64457;51.976;9.834;2023-03-01T02:36:15;16.10;;;9.45;;
75823;SDS011;64457;51.976;9.834;2023-03-01T02:38:46;16.38;;;9.23;;
75823;SDS011;64457;51.976;9.834;2023-03-01T02:41:17;22.02;;;10.30;;
75823;SDS011;64457;51.976;9.834;2023-03-01T02:43:48;14.57;;;8.95;;
75823;SDS011;64457;51.976;9.834;2023-03-01T02:46:16;18.63;;;9.75;;
75823;SDS011;64457;51.976;9.834;2023-03-01T02:48:46;18.98;;;9.75;;
75823;SDS011;64457;51.976;9.834;2023-03-01T02:51:22;18.23;;;9.57;;
75823;SDS011;64457;51.976;9.834;2023-03-01T02:54:05;13.65;;;7.88;;
75823;SDS011;64457;51.976;9.834;2023-03-01T02:56:41;14.13;;;8.50;;
75823;SDS011;64457;51.976;9.834;2023-03-01T02:59:14;16.75;;;9.00;;
75823;SDS011;64457;51.976;9.834;2023-03-01T03:01:44;14.25;;;8.10;;
75823;SDS011;64457;51.976;9.834;2023-03-01T03:04:13;15.93;;;8.30;;
75823;SDS011;64457;51.976;9.834;2023-03-01T03:06:43;17.95;;;9.18;;
75823;SDS011;64457;51.976;9.834;2023-03-01T03:09:11;16.30;;;7.90;;
75823;SDS011;64457;51.976;9.834;2023-03-01T03:11:39;15.15;;;8.50;;
75823;SDS011;64457;51.976;9.834;2023-03-01T03:14:08;13.27;;;7.63;;
75823;SDS011;64457;51.976;9.834;2023-03-01T03:16:40;15.88;;;7.55;;
75823;SDS011;64457;51.976;9.834;2023-03-01T03:19:08;14.00;;;7.70;;
75823;SDS011;64457;51.976;9.834;2023-03-01T03:21:36;14.85;;;8.38;;
75823;SDS011;64457;51.976;9.834;2023-03-01T03:24:03;14.55;;;8.27;;
75823;SDS011;64457;51.976;9.834;2023-03-01T03:26:31;13.50;;;7.88;;
75823;SDS011;64457;51.976;9.834;2023-03-01T03:28:59;13.35;;;8.27;;
75823;SDS011;64457;51.976;9.834;2023-03-01T03:31:26;15.25;;;8.73;;
75823;SDS011;64457;51.976;9.834;2023-03-01T03:33:55;11.73;;;7.20;;
75823;SDS011;64457;51.976;9.834;2023-03-01T03:36:24;12.73;;;7.35;;
75823;SDS011;64457;51.976;9.834;2023-03-01T03:38:51;12.93;;;7.75;;
75823;SDS011;64457;51.976;9.834;2023-03-01T03:41:19;15.52;;;7.68;;
75823;SDS011;64457;51.976;9.834;2023-03-01T03:43:46;11.50;;;7.25;;
75823;SDS011;64457;51.976;9.834;2023-03-01T03:46:14;16.60;;;7.68;;
75823;SDS011;64457;51.976;9.834;2023-03-01T03:48:43;16.58;;;7.63;;
75823;SDS011;64457;51.976;9.834;2023-03-01T03:51:13;10.90;;;6.65;;
75823;SDS011;64457;51.976;9.834;2023-03-01T03:53:44;17.52;;;7.40;;
75823;SDS011;64457;51.976;9.834;2023-03-01T03:56:12;16.13;;;8.23;;
75823;SDS011;64457;51.976;9.834;2023-03-01T03:58:40;12.88;;;7.05;;
75823;SDS011;64457;51.976;9.834;2023-03-01T04:01:07;12.98;;;7.72;;
75823;SDS011;64457;51.976;9.834;2023-03-01T04:03:34;13.02;;;7.38;;
75823;SDS011;64457;51.976;9.834;2023-03-01T04:06:02;15.63;;;8.45;;
75823;SDS011;64457;51.976;9.834;2023-03-01T04:08:32;15.27;;;8.50;;
75823;SDS011;64457;51.976;9.834;2023-03-01T04:11:00;12.48;;;7.10;;
75823;SDS011;64457;51.976;9.834;2023-03-01T04:13:51;11.60;;;6.80;;
75823;SDS011;64457;51.976;9.834;2023-03-01T04:16:19;18.08;;;7.93;;
75823;SDS011;64457;51.976;9.834;2023-03-01T04:18:47;12.02;;;7.28;;
75823;SDS011;64457;51.976;9.834;2023-03-01T04:21:14;14.38;;;7.28;;
75823;SDS011;64457;51.976;9.834;2023-03-01T04:23:43;15.40;;;8.60;;
75823;SDS011;64457;51.976;9.834;2023-03-01T04:26:10;11.23;;;7.30;;
75823;SDS011;64457;51.976;9.834;2023-03-01T04:28:38;17.10;;;8.43;;
75823;SDS011;64457;51.976;9.834;2023-03-01T04:31:08;15.75;;;8.50;;
75823;SDS011;64457;51.976;9.834;2023-03-01T04:33:43;15.80;;;8.43;;
75823;SDS011;64457;51.976;9.834;2023-03-01T04:36:13;13.77;;;7.95;;
75823;SDS011;64457;51.976;9.834;2023-03-01T04:38:44;14.65;;;8.00;;
75823;SDS011;64457;51.976;9.834;2023-03-01T04:41:13;14.20;;;8.15;;
75823;SDS011;64457;51.976;9.834;2023-03-01T04:43:42;13.75;;;8.43;;
75823;SDS011;64457;51.976;9.834;2023-03-01T04:46:11;14.30;;;7.88;;
75823;SDS011;64457;51.976;9.834;2023-03-01T04:48:40;16.25;;;7.90;;
75823;SDS011;64457;51.976;9.834;2023-03-01T04:51:08;14.00;;;8.18;;
75823;SDS011;64457;51.976;9.834;2023-03-01T04:53:38;14.45;;;7.55;;
75823;SDS011;64457;51.976;9.834;2023-03-01T04:56:07;13.75;;;7.78;;
75823;SDS011;64457;51.976;9.834;2023-03-01T04:58:35;14.02;;;8.55;;
75823;SDS011;64457;51.976;9.834;2023-03-01T05:01:07;15.43;;;9.10;;
75823;SDS011;64457;51.976;9.834;2023-03-01T05:03:40;13.50;;;7.75;;
75823;SDS011;64457;51.976;9.834;2023-03-01T05:06:08;14.30;;;7.82;;
75823;SDS011;64457;51.976;9.834;2023-03-01T05:08:36;15.25;;;9.02;;
75823;SDS011;64457;51.976;9.834;2023-03-01T05:11:04;16.35;;;7.90;;
75823;SDS011;64457;51.976;9.834;2023-03-01T05:13:34;15.55;;;8.45;;
75823;SDS011;64457;51.976;9.834;2023-03-01T05:16:03;14.23;;;8.82;;
75823;SDS011;64457;51.976;9.834;2023-03-01T05:18:36;14.13;;;8.18;;
75823;SDS011;64457;51.976;9.834;2023-03-01T05:21:05;18.02;;;8.63;;
75823;SDS011;64457;51.976;9.834;2023-03-01T05:23:33;16.55;;;8.63;;
75823;SDS011;64457;51.976;9.834;2023-03-01T05:26:01;16.90;;;9.38;;
75823;SDS011;64457;51.976;9.834;2023-03-01T05:28:32;17.15;;;9.60;;
75823;SDS011;64457;51.976;9.834;2023-03-01T05:30:59;20.15;;;10.32;;
75823;SDS011;64457;51.976;9.834;2023-03-01T05:33:27;17.23;;;9.63;;
75823;SDS011;64457;51.976;9.834;2023-03-01T05:35:54;18.08;;;9.63;;
75823;SDS011;64457;51.976;9.834;2023-03-01T05:38:26;17.13;;;10.50;;
75823;SDS011;64457;51.976;9.834;2023-03-01T05:40:53;16.23;;;9.90;;
75823;SDS011;64457;51.976;9.834;2023-03-01T05:43:20;23.52;;;10.27;;
75823;SDS011;64457;51.976;9.834;2023-03-01T05:45:49;23.10;;;12.07;;
75823;SDS011;64457;51.976;9.834;2023-03-01T05:48:16;23.67;;;11.60;;
75823;SDS011;64457;51.976;9.834;2023-03-01T05:50:45;21.35;;;12.20;;
75823;SDS011;64457;51.976;9.834;2023-03-01T05:53:13;23.08;;;12.48;;
75823;SDS011;64457;51.976;9.834;2023-03-01T05:55:42;20.42;;;12.00;;
75823;SDS011;64457;51.976;9.834;2023-03-01T05:58:13;20.35;;;11.40;;
75823;SDS011;64457;51.976;9.834;2023-03-01T06:00:42;20.15;;;11.13;;
75823;SDS011;64457;51.976;9.834;2023-03-01T06:03:13;21.58;;;11.73;;
75823;SDS011;64457;51.976;9.834;2023-03-01T06:05:42;21.40;;;11.60;;
75823;SDS011;64457;51.976;9.834;2023-03-01T06:08:10;26.85;;;11.75;;
75823;SDS011;64457;51.976;9.834;2023-03-01T06:10:38;17.92;;;9.85;;
75823;SDS011;64457;51.976;9.834;2023-03-01T06:13:06;23.25;;;11.93;;
75823;SDS011;64457;51.976;9.834;2023-03-01T06:15:33;23.73;;;11.32;;
75823;SDS011;64457;51.976;9.834;2023-03-01T06:18:00;18.88;;;9.52;;
75823;SDS011;64457;51.976;9.834;2023-03-01T06:20:29;23.95;;;11.15;;
75823;SDS011;64457;51.976;9.834;2023-03-01T06:22:56;16.67;;;9.90;;
75823;SDS011;64457;51.976;9.834;2023-03-01T06:25:25;17.63;;;10.13;;
75823;SDS011;64457;51.976;9.834;2023-03-01T06:27:53;17.77;;;10.52;;
75823;SDS011;64457;51.976;9.834;2023-03-01T06:30:21;20.90;;;10.45;;
75823;SDS011;64457;51.976;9.834;2023-03-01T06:32:51;19.75;;;11.13;;
75823;SDS011;64457;51.976;9.834;2023-03-01T06:35:25;22.40;;;11.32;;
75823;SDS011;64457;51.976;9.834;2023-03-01T06:37:56;19.92;;;11.13;;
75823;SDS011;64457;51.976;9.834;2023-03-01T06:40:24;21.63;;;11.75;;
75823;SDS011;64457;51.976;9.834;2023-03-01T06:42:52;28.25;;;10.90;;
75823;SDS011;64457;51.976;9.834;2023-03-01T06:45:19;23.23;;;12.32;;
75823;SDS011;64457;51.976;9.834;2023-03-01T06:47:47;25.70;;;13.20;;
75823;SDS011;64457;51.976;9.834;2023-03-01T06:50:14;23.67;;;13.20;;
75823;SDS011;64457;51.976;9.834;2023-03-01T06:52:43;22.88;;;12.70;;
75823;SDS011;64457;51.976;9.834;2023-03-01T06:55:12;23.92;;;13.10;;
75823;SDS011;64457;51.976;9.834;2023-03-01T06:57:40;23.35;;;12.57;;
75823;SDS011;64457;51.976;9.834;2023-03-01T07:00:08;25.38;;;12.50;;
75823;SDS011;64457;51.976;9.834;2023-03-01T07:02:37;26.20;;;13.30;;
75823;SDS011;64457;51.976;9.834;2023-03-01T07:05:04;23.23;;;13.13;;
75823;SDS011;64457;51.976;9.834;2023-03-01T07:07:32;26.63;;;12.77;;
75823;SDS011;64457;51.976;9.834;2023-03-01T07:09:59;22.17;;;11.40;;
75823;SDS011;64457;51.976;9.834;2023-03-01T07:12:28;18.55;;;11.13;;
75823;SDS011;64457;51.976;9.834;2023-03-01T07:14:55;28.13;;;13.25;;
75823;SDS011;64457;51.976;9.834;2023-03-01T07:17:22;24.70;;;13.55;;
75823;SDS011;64457;51.976;9.834;2023-03-01T07:19:50;25.95;;;14.10;;
75823;SDS011;64457;51.976;9.834;2023-03-01T07:22:17;31.42;;;15.20;;
75823;SDS011;64457;51.976;9.834;2023-03-01T07:24:44;24.83;;;13.75;;
75823;SDS011;64457;51.976;9.834;2023-03-01T07:27:11;28.45;;;13.27;;
75823;SDS011;64457;51.976;9.834;2023-03-01T07:29:40;25.77;;;13.60;;
75823;SDS011;64457;51.976;9.834;2023-03-01T07:32:07;24.15;;;13.38;;
75823;SDS011;64457;51.976;9.834;2023-03-01T07:34:34;32.50;;;16.70;;
75823;SDS011;64457;51.976;9.834;2023-03-01T07:37:01;31.40;;;15.20;;
75823;SDS011;64457;51.976;9.834;2023-03-01T07:39:29;26.03;;;13.70;;
75823;SDS011;64457;51.976;9.834;2023-03-01T07:41:57;23.10;;;11.80;;
75823;SDS011;64457;51.976;9.834;2023-03-01T07:44:25;20.43;;;9.17;;
75823;SDS011;64457;51.976;9.834;2023-03-01T07:46:54;16.17;;;8.73;;
75823;SDS011;64457;51.976;9.834;2023-03-01T07:49:23;17.20;;;8.70;;
75823;SDS011;64457;51.976;9.834;2023-03-01T07:51:52;16.87;;;8.30;;
75823;SDS011;64457;51.976;9.834;2023-03-01T07:54:20;20.80;;;9.80;;
75823;SDS011;64457;51.976;9.834;2023-03-01T07:56:47;17.47;;;8.93;;
75823;SDS011;64457;51.976;9.834;2023-03-01T07:59:14;17.60;;;8.77;;
75823;SDS011;64457;51.976;9.834;2023-03-01T08:01:41;19.13;;;9.90;;
75823;SDS011;64457;51.976;9.834;2023-03-01T08:04:11;22.13;;;10.50;;
75823;SDS011;64457;51.976;9.834;2023-03-01T08:06:39;20.90;;;10.37;;
75823;SDS011;64457;51.976;9.834;2023-03-01T08:09:06;21.27;;;10.77;;
75823;SDS011;64457;51.976;9.834;2023-03-01T08:11:34;18.40;;;9.90;;
75823;SDS011;64457;51.976;9.834;2023-03-01T08:14:01;16.67;;;8.80;;
75823;SDS011;64457;51.976;9.834;2023-03-01T08:16:30;17.27;;;9.40;;
75823;SDS011;64457;51.976;9.834;2023-03-01T08:19:02;22.20;;;11.07;;
75823;SDS011;64457;51.976;9.834;2023-03-01T08:21:32;23.87;;;11.13;;
75823;SDS011;64457;51.976;9.834;2023-03-01T08:24:00;18.33;;;10.67;;
75823;SDS011;64457;51.976;9.834;2023-03-01T08:26:28;25.50;;;11.00;;
75823;SDS011;64457;51.976;9.834;2023-03-01T08:28:55;20.13;;;11.83;;
75823;SDS011;64457;51.976;9.834;2023-03-01T08:31:23;22.70;;;12.10;;
75823;SDS011;64457;51.976;9.834;2023-03-01T08:33:55;21.17;;;11.80;;
75823;SDS011;64457;51.976;9.834;2023-03-01T08:36:24;26.43;;;12.03;;
75823;SDS011;64457;51.976;9.834;2023-03-01T08:38:55;23.20;;;13.00;;
75823;SDS011;64457;51.976;9.834;2023-03-01T08:41:23;23.03;;;11.70;;
75823;SDS011;64457;51.976;9.834;2023-03-01T08:43:50;31.43;;;13.33;;
75823;SDS011;64457;51.976;9.834;2023-03-01T08:46:23;28.30;;;14.63;;
75823;SDS011;64457;51.976;9.834;2023-03-01T08:48:52;26.83;;;15.17;;
75823;SDS011;64457;51.976;9.834;2023-03-01T08:51:20;22.03;;;12.33;;
75823;SDS011;64457;51.976;9.834;2023-03-01T08:53:49;29.07;;;13.27;;
75823;SDS011;64457;51.976;9.834;2023-03-01T08:56:17;20.33;;;12.40;;
75823;SDS011;64457;51.976;9.834;2023-03-01T08:58:45;22.80;;;12.60;;
75823;SDS011;64457;51.976;9.834;2023-03-01T09:01:15;28.23;;;13.00;;
75823;SDS011;64457;51.976;9.834;2023-03-01T09:03:44;21.90;;;12.43;;
75823;SDS011;64457;51.976;9.834;2023-03-01T09:06:12;33.23;;;13.00;;
75823;SDS011;64457;51.976;9.834;2023-03-01T09:08:41;23.00;;;13.53;;
75823;SDS011;64457;51.976;9.834;2023-03-01T09:11:11;28.60;;;12.67;;
75823;SDS011;64457;51.976;9.834;2023-03-01T09:13:43;21.67;;;11.63;;
75823;SDS011;64457;51.976;9.834;2023-03-01T09:16:11;19.73;;;11.90;;
75823;SDS011;64457;51.976;9.834;2023-03-01T09:18:41;22.80;;;11.97;;
75823;SDS011;64457;51.976;9.834;2023-03-01T09:21:10;26.27;;;11.67;;
75823;SDS011;64457;51.976;9.834;2023-03-01T09:23:39;21.80;;;11.00;;
75823;SDS011;64457;51.976;9.834;2023-03-01T09:26:10;19.50;;;9.80;;
75823;SDS011;64457;51.976;9.834;2023-03-01T09:28:42;20.43;;;11.27;;
75823;SDS011;64457;51.976;9.834;2023-03-01T09:31:10;24.60;;;12.27;;
75823;SDS011;64457;51.976;9.834;2023-03-01T09:33:38;23.60;;;12.13;;
75823;SDS011;64457;51.976;9.834;2023-03-01T09:36:09;26.10;;;12.80;;
75823;SDS011;64457;51.976;9.834;2023-03-01T09:38:40;20.80;;;11.47;;
75823;SDS011;64457;51.976;9.834;2023-03-01T09:41:09;20.63;;;11.00;;
75823;SDS011;64457;51.976;9.834;2023-03-01T09:43:52;24.97;;;10.97;;
75823;SDS011;64457;51.976;9.834;2023-03-01T09:46:24;20.60;;;10.43;;
75823;SDS011;64457;51.976;9.834;2023-03-01T09:48:55;23.57;;;12.30;;
75823;SDS011;64457;51.976;9.834;2023-03-01T09:51:26;20.60;;;10.27;;
75823;SDS011;64457;51.976;9.834;2023-03-01T09:53:57;16.57;;;8.63;;
75823;SDS011;64457;51.976;9.834;2023-03-01T09:56:27;13.53;;;7.23;;
75823;SDS011;64457;51.976;9.834;2023-03-01T09:59:02;17.80;;;8.60;;
75823;SDS011;64457;51.976;9.834;2023-03-01T10:01:45;13.60;;;6.47;;
75823;SDS011;64457;51.976;9.834;2023-03-01T10:04:28;12.07;;;5.60;;
75823;SDS011;64457;51.976;9.834;2023-03-01T10:07:12;11.40;;;5.63;;
75823;SDS011;64457;51.976;9.834;2023-03-01T10:09:48;13.37;;;5.40;;
75823;SDS011;64457;51.976;9.834;2023-03-01T10:12:16;12.00;;;5.27;;
75823;SDS011;64457;51.976;9.834;2023-03-01T10:14:51;14.37;;;6.10;;
75823;SDS011;64457;51.976;9.834;2023-03-01T10:17:27;13.87;;;5.53;;
75823;SDS011;64457;51.976;9.834;2023-03-01T10:20:10;13.80;;;6.23;;
75823;SDS011;64457;51.976;9.834;2023-03-01T10:22:44;12.50;;;5.33;;
75823;SDS011;64457;51.976;9.834;2023-03-01T10:25:17;12.23;;;5.63;;
75823;SDS011;64457;51.976;9.834;2023-03-01T10:27:59;12.43;;;6.50;;
75823;SDS011;64457;51.976;9.834;2023-03-01T10:30:34;12.67;;;6.33;;
75823;SDS011;64457;51.976;9.834;2023-03-01T10:33:08;11.43;;;5.50;;
75823;SDS011;64457;51.976;9.834;2023-03-01T10:35:43;13.47;;;6.40;;
75823;SDS011;64457;51.976;9.834;2023-03-01T10:38:11;13.60;;;6.40;;
75823;SDS011;64457;51.976;9.834;2023-03-01T10:40:49;12.07;;;6.07;;
75823;SDS011;64457;51.976;9.834;2023-03-01T10:43:20;13.20;;;5.90;;
75823;SDS011;64457;51.976;9.834;2023-03-01T10:45:49;11.47;;;5.27;;
75823;SDS011;64457;51.976;9.834;2023-03-01T10:48:17;15.87;;;5.60;;
75823;SDS011;64457;51.976;9.834;2023-03-01T10:50:49;10.83;;;5.00;;
75823;SDS011;64457;51.976;9.834;2023-03-01T10:53:32;16.43;;;5.80;;
75823;SDS011;64457;51.976;9.834;2023-03-01T10:56:03;11.33;;;5.50;;
75823;SDS011;64457;51.976;9.834;2023-03-01T10:58:34;12.60;;;5.67;;
75823;SDS011;64457;51.976;9.834;2023-03-01T11:01:05;11.23;;;6.00;;
75823;SDS011;64457;51.976;9.834;2023-03-01T11:04:02;12.00;;;5.80;;
75823;SDS011;64457;51.976;9.834;2023-03-01T11:06:38;12.77;;;5.93;;
75823;SDS011;64457;51.976;9.834;2023-03-01T11:09:18;13.43;;;6.17;;
75823;SDS011;64457;51.976;9.834;2023-03-01T11:11:50;13.27;;;6.40;;
75823;SDS011;64457;51.976;9.834;2023-03-01T11:14:20;14.33;;;6.00;;
75823;SDS011;64457;51.976;9.834;2023-03-01T11:17:00;12.50;;;5.60;;
75823;SDS011;64457;51.976;9.834;2023-03-01T11:19:30;13.07;;;5.50;;
75823;SDS011;64457;51.976;9.834;2023-03-01T11:21:59;12.37;;;5.73;;
75823;SDS011;64457;51.976;9.834;2023-03-01T11:24:31;11.87;;;5.80;;
75823;SDS011;64457;51.976;9.834;2023-03-01T11:27:06;11.90;;;5.60;;
75823;SDS011;64457;51.976;9.834;2023-03-01T11:29:46;13.17;;;5.90;;
75823;SDS011;64457;51.976;9.834;2023-03-01T11:32:19;13.30;;;6.63;;
75823;SDS011;64457;51.976;9.834;2023-03-01T11:34:51;12.80;;;5.90;;
75823;SDS011;64457;51.976;9.834;2023-03-01T11:37:29;11.93;;;5.90;;
75823;SDS011;64457;51.976;9.834;2023-03-01T11:40:03;11.27;;;5.53;;
75823;SDS011;64457;51.976;9.834;2023-03-01T11:42:42;13.17;;;6.20;;
75823;SDS011;64457;51.976;9.834;2023-03-01T11:45:22;13.00;;;5.63;;
75823;SDS011;64457;51.976;9.834;2023-03-01T11:48:01;13.00;;;5.83;;
75823;SDS011;64457;51.976;9.834;2023-03-01T11:50:51;12.07;;;6.00;;
75823;SDS011;64457;51.976;9.834;2023-03-01T11:53:28;13.70;;;6.10;;
75823;SDS011;64457;51.976;9.834;2023-03-01T11:56:13;14.60;;;5.90;;
75823;SDS011;64457;51.976;9.834;2023-03-01T11:58:54;11.57;;;5.90;;
75823;SDS011;64457;51.976;9.834;2023-03-01T12:01:37;12.67;;;5.90;;
75823;SDS011;64457;51.976;9.834;2023-03-01T12:04:32;12.37;;;5.70;;
75823;SDS011;64457;51.976;9.834;2023-03-01T12:07:31;14.27;;;6.80;;
75823;SDS011;64457;51.976;9.834;2023-03-01T12:10:13;12.97;;;5.30;;
75823;SDS011;64457;51.976;9.834;2023-03-01T12:12:52;11.27;;;5.50;;
75823;SDS011;64457;51.976;9.834;2023-03-01T12:15:56;11.47;;;5.77;;
75823;SDS011;64457;51.976;9.834;2023-03-01T12:18:46;12.30;;;5.33;;
75823;SDS011;64457;51.976;9.834;2023-03-01T12:21:44;13.40;;;6.10;;
75823;SDS011;64457;51.976;9.834;2023-03-01T12:24:31;11.50;;;5.60;;
75823;SDS011;64457;51.976;9.834;2023-03-01T12:27:16;11.87;;;5.33;;
75823;SDS011;64457;51.976;9.834;2023-03-01T12:30:00;11.87;;;5.90;;
75823;SDS011;64457;51.976;9.834;2023-03-01T12:32:46;11.80;;;5.50;;
75823;SDS011;64457;51.976;9.834;2023-03-01T12:35:47;9.37;;;4.70;;
75823;SDS011;64457;51.976;9.834;2023-03-01T12:38:41;12.73;;;5.20;;
75823;SDS011;64457;51.976;9.834;2023-03-01T12:41:20;10.10;;;4.33;;
75823;SDS011;64457;51.976;9.834;2023-03-01T12:44:10;10.17;;;4.30;;
75823;SDS011;64457;51.976;9.834;2023-03-01T12:46:55;12.30;;;5.10;;
75823;SDS011;64457;51.976;9.834;2023-03-01T12:49:34;7.70;;;4.13;;
75823;SDS011;64457;51.976;9.834;2023-03-01T12:52:10;11.83;;;4.90;;
75823;SDS011;64457;51.976;9.834;2023-03-01T12:54:44;11.87;;;4.80;;
75823;SDS011;64457;51.976;9.834;2023-03-01T12:57:14;10.93;;;4.70;;
75823;SDS011;64457;51.976;9.834;2023-03-01T13:00:05;11.23;;;4.47;;
75823;SDS011;64457;51.976;9.834;2023-03-01T13:02:49;11.90;;;5.40;;
75823;SDS011;64457;51.976;9.834;2023-03-01T13:05:26;10.90;;;5.07;;
75823;SDS011;64457;51.976;9.834;2023-03-01T13:08:05;12.23;;;4.90;;
75823;SDS011;64457;51.976;9.834;2023-03-01T13:10:45;12.20;;;5.10;;
75823;SDS011;64457;51.976;9.834;2023-03-01T13:13:20;10.87;;;5.30;;
75823;SDS011;64457;51.976;9.834;2023-03-01T13:15:49;10.63;;;4.60;;
75823;SDS011;64457;51.976;9.834;2023-03-01T13:18:30;13.23;;;4.70;;
75823;SDS011;64457;51.976;9.834;2023-03-01T13:20:59;11.80;;;5.37;;
75823;SDS011;64457;51.976;9.834;2023-03-01T13:23:30;12.03;;;5.17;;
75823;SDS011;64457;51.976;9.834;2023-03-01T13:26:08;10.50;;;4.50;;
75823;SDS011;64457;51.976;9.834;2023-03-01T13:28:40;10.87;;;4.73;;
75823;SDS011;64457;51.976;9.834;2023-03-01T13:43:29;14.23;;;4.87;;
75823;SDS011;64457;51.976;9.834;2023-03-01T13:45:59;10.33;;;4.77;;
75823;SDS011;64457;51.976;9.834;2023-03-01T13:48:30;11.70;;;5.10;;
75823;SDS011;64457;51.976;9.834;2023-03-01T13:51:00;13.00;;;4.83;;
75823;SDS011;64457;51.976;9.834;2023-03-01T13:53:31;9.20;;;4.30;;
75823;SDS011;64457;51.976;9.834;2023-03-01T13:56:03;11.07;;;4.63;;
75823;SDS011;64457;51.976;9.834;2023-03-01T13:58:46;9.30;;;4.20;;
75823;SDS011;64457;51.976;9.834;2023-03-01T14:01:21;13.13;;;4.50;;
75823;SDS011;64457;51.976;9.834;2023-03-01T14:03:52;11.50;;;4.83;;
75823;SDS011;64457;51.976;9.834;2023-03-01T14:06:20;11.83;;;5.13;;
75823;SDS011;64457;51.976;9.834;2023-03-01T14:08:50;13.60;;;4.80;;
75823;SDS011;64457;51.976;9.834;2023-03-01T14:11:47;9.63;;;4.50;;
75823;SDS011;64457;51.976;9.834;2023-03-01T14:20:24;9.97;;;4.40;;
75823;SDS011;64457;51.976;9.834;2023-03-01T14:22:54;12.10;;;4.67;;
75823;SDS011;64457;51.976;9.834;2023-03-01T14:25:25;10.23;;;4.80;;
75823;SDS011;64457;51.976;9.834;2023-03-01T14:27:56;23.13;;;5.50;;
75823;SDS011;64457;51.976;9.834;2023-03-01T14:30:32;14.73;;;5.40;;
75823;SDS011;64457;51.976;9.834;2023-03-01T14:33:04;15.10;;;4.90;;
75823;SDS011;64457;51.976;9.834;2023-03-01T14:35:51;11.80;;;4.43;;
75823;SDS011;64457;51.976;9.834;2023-03-01T14:38:28;8.87;;;4.07;;
75823;SDS011;64457;51.976;9.834;2023-03-01T14:41:01;9.07;;;3.70;;
75823;SDS011;64457;51.976;9.834;2023-03-01T14:43:31;10.77;;;4.90;;
75823;SDS011;64457;51.976;9.834;2023-03-01T14:46:02;13.57;;;4.90;;
75823;SDS011;64457;51.976;9.834;2023-03-01T14:48:29;10.50;;;4.60;;
75823;SDS011;64457;51.976;9.834;2023-03-01T14:50:58;8.13;;;4.33;;
75823;SDS011;64457;51.976;9.834;2023-03-01T14:53:26;8.33;;;3.83;;
75823;SDS011;64457;51.976;9.834;2023-03-01T14:55:56;8.67;;;4.30;;
75823;SDS011;64457;51.976;9.834;2023-03-01T14:58:28;7.57;;;3.70;;
75823;SDS011;64457;51.976;9.834;2023-03-01T15:00:59;8.43;;;4.07;;
75823;SDS011;64457;51.976;9.834;2023-03-01T15:03:31;9.10;;;4.37;;
75823;SDS011;64457;51.976;9.834;2023-03-01T15:06:03;10.50;;;4.07;;
75823;SDS011;64457;51.976;9.834;2023-03-01T15:08:33;7.57;;;4.00;;
75823;SDS011;64457;51.976;9.834;2023-03-01T15:11:03;10.50;;;4.77;;
75823;SDS011;64457;51.976;9.834;2023-03-01T15:13:42;11.03;;;4.67;;
75823;SDS011;64457;51.976;9.834;2023-03-01T15:16:15;8.33;;;4.17;;
75823;SDS011;64457;51.976;9.834;2023-03-01T15:18:45;9.97;;;4.20;;